Time;durP1;ratioP1;P1;durP2;ratioP2;P2;SDS_P1;SDS_P2;PMS_P1;PMS_P2;Temp;Humidity;BMP_temperature;BMP_pressure;BME280_temperature;BME280_humidity;BME280_pressure;Samples;Min_cycle;Max_cycle;Signal;HPM_P1;HPM_P2
2023/09/13 00:00:48;;;;;;;6.55;2.00;;;18.30;99.90;;;;;;5064221;28;20455;-73
2023/09/13 00:03:13;;;;;;;15.10;2.55;;;18.30;99.90;;;;;;5067244;28;20049;-73
2023/09/13 00:05:42;;;;;;;10.57;2.33;;;18.30;99.90;;;;;;5057220;28;20444;-72
2023/09/13 00:08:08;;;;;;;11.40;2.75;;;18.30;99.90;;;;;;5058418;28;20037;-73
2023/09/13 00:10:34;;;;;;;9.82;2.67;;;18.30;99.90;;;;;;5065582;28;20512;-73
2023/09/13 00:12:59;;;;;;;7.97;2.30;;;18.30;99.90;;;;;;5067574;28;20105;-72
2023/09/13 00:15:25;;;;;;;14.18;2.72;;;18.30;99.90;;;;;;5065208;28;20796;-73
2023/09/13 00:17:51;;;;;;;11.05;2.45;;;18.30;99.90;;;;;;5067436;28;20040;-72
2023/09/13 00:20:17;;;;;;;10.05;2.50;;;18.30;99.90;;;;;;5057539;28;20082;-72
2023/09/13 00:22:45;;;;;;;9.50;2.40;;;18.20;99.90;;;;;;5064577;28;20040;-72
2023/09/13 00:25:11;;;;;;;10.45;2.25;;;18.20;99.90;;;;;;5062270;28;20398;-72
2023/09/13 00:27:37;;;;;;;11.98;2.22;;;18.20;99.90;;;;;;5054275;28;20040;-72
2023/09/13 00:30:03;;;;;;;11.85;2.80;;;18.20;99.90;;;;;;5066396;28;20809;-71
2023/09/13 00:32:28;;;;;;;10.50;2.30;;;18.20;99.90;;;;;;5057464;28;20059;-72
2023/09/13 00:34:54;;;;;;;10.30;2.35;;;18.20;99.90;;;;;;5067698;28;20033;-72
2023/09/13 00:37:20;;;;;;;10.77;2.50;;;18.20;99.90;;;;;;5066209;28;20074;-72
2023/09/13 00:39:45;;;;;;;8.30;2.08;;;18.20;99.90;;;;;;5065268;28;20119;-72
2023/09/13 00:42:11;;;;;;;9.63;2.20;;;18.20;99.90;;;;;;5060523;28;20136;-72
2023/09/13 00:44:37;;;;;;;8.80;2.60;;;18.20;99.90;;;;;;5068247;28;20040;-72
2023/09/13 00:47:03;;;;;;;15.35;2.72;;;18.10;99.90;;;;;;5066860;28;20606;-72
2023/09/13 00:49:29;;;;;;;13.98;2.72;;;18.10;99.90;;;;;;5067388;28;20044;-72
2023/09/13 00:51:57;;;;;;;11.98;2.28;;;18.00;99.90;;;;;;5067627;28;20433;-73
2023/09/13 00:54:23;;;;;;;10.10;1.77;;;18.00;99.90;;;;;;5050759;28;20059;-72
2023/09/13 00:56:49;;;;;;;6.88;1.88;;;18.00;99.90;;;;;;5068030;28;20463;-73
2023/09/13 00:59:15;;;;;;;9.88;2.35;;;18.00;99.90;;;;;;5063952;28;20041;-72
2023/09/13 01:01:41;;;;;;;12.13;2.30;;;18.00;99.90;;;;;;5064160;28;20040;-73
2023/09/13 01:04:07;;;;;;;11.77;2.80;;;17.90;99.90;;;;;;5066028;28;20131;-73
2023/09/13 01:06:34;;;;;;;12.45;2.92;;;17.90;99.90;;;;;;5064794;28;20206;-73
2023/09/13 01:09:03;;;;;;;12.98;2.50;;;17.90;99.90;;;;;;5066921;28;20531;-72
2023/09/13 01:11:29;;;;;;;9.25;1.90;;;17.90;99.90;;;;;;5051940;28;20162;-72
2023/09/13 01:13:55;;;;;;;9.45;2.22;;;17.90;99.90;;;;;;5070494;28;20136;-73
2023/09/13 01:16:48;;;;;;;16.73;3.97;;;17.80;99.90;;;;;;5069868;28;20494;-72
2023/09/13 01:19:23;;;;;;;13.13;2.00;;;17.80;99.90;;;;;;5064023;28;20052;-73
2023/09/13 01:22:07;;;;;;;12.20;2.20;;;17.80;99.90;;;;;;5066875;28;20056;-72
2023/09/13 01:24:42;;;;;;;18.50;2.40;;;17.80;99.90;;;;;;5067682;28;20044;-72
2023/09/13 01:27:37;;;;;;;10.73;2.05;;;17.70;99.90;;;;;;5066495;28;20044;-72
2023/09/13 01:30:06;;;;;;;10.98;1.70;;;17.70;99.90;;;;;;5054161;28;20467;-72
2023/09/13 01:32:34;;;;;;;8.63;1.92;;;17.70;99.90;;;;;;5066900;28;20055;-71
2023/09/13 01:35:00;;;;;;;13.20;2.35;;;17.70;99.90;;;;;;5066500;28;20048;-72
2023/09/13 01:37:29;;;;;;;12.10;2.42;;;17.60;99.90;;;;;;5064699;28;20497;-72
2023/09/13 01:39:54;;;;;;;14.10;2.10;;;17.60;99.90;;;;;;5066723;28;20135;-72
2023/09/13 01:42:22;;;;;;;10.48;1.80;;;17.60;99.90;;;;;;5067055;28;20123;-72
2023/09/13 01:44:48;;;;;;;13.40;2.72;;;17.60;99.90;;;;;;5065517;28;20564;-72
2023/09/13 01:47:17;;;;;;;12.30;1.90;;;17.60;99.90;;;;;;5057389;28;20045;-72
2023/09/13 01:49:44;;;;;;;10.90;2.42;;;17.50;99.90;;;;;;5065925;28;20044;-72
2023/09/13 01:52:10;;;;;;;9.50;1.83;;;17.50;99.90;;;;;;5059810;28;20045;-72
2023/09/13 01:54:36;;;;;;;8.02;1.77;;;17.50;99.90;;;;;;5058986;28;20512;-72
2023/09/13 01:57:02;;;;;;;9.48;2.00;;;17.50;99.90;;;;;;5064673;28;20382;-73
2023/09/13 01:59:28;;;;;;;12.23;2.00;;;17.50;99.90;;;;;;5066250;28;20104;-72
2023/09/13 02:01:54;;;;;;;9.10;1.58;;;17.50;99.90;;;;;;5065209;28;20131;-73
2023/09/13 02:04:20;;;;;;;8.93;2.00;;;17.40;99.90;;;;;;5067110;28;20129;-72
2023/09/13 02:06:45;;;;;;;8.23;1.80;;;17.40;99.90;;;;;;5064822;28;20044;-72
2023/09/13 02:09:11;;;;;;;11.30;1.67;;;17.40;99.90;;;;;;5065628;28;20041;-69
2023/09/13 02:11:37;;;;;;;11.27;1.83;;;17.40;99.90;;;;;;5065737;28;20049;-69
2023/09/13 02:14:02;;;;;;;8.85;2.42;;;17.40;99.90;;;;;;5065158;28;20064;-68
2023/09/13 02:16:28;;;;;;;8.60;2.40;;;17.40;99.90;;;;;;5064081;28;20059;-69
2023/09/13 02:18:54;;;;;;;12.68;2.17;;;17.30;99.90;;;;;;5063702;28;20045;-69
2023/09/13 02:21:20;;;;;;;12.00;1.98;;;17.30;99.90;;;;;;5047133;28;20035;-69
2023/09/13 02:23:46;;;;;;;7.68;1.45;;;17.30;99.90;;;;;;5063433;28;20051;-69
2023/09/13 02:26:22;;;;;;;9.27;2.47;;;17.30;99.90;;;;;;5065496;28;20048;-69
2023/09/13 02:28:48;;;;;;;8.93;1.80;;;17.30;99.90;;;;;;5057257;28;20048;-69
2023/09/13 02:31:24;;;;;;;7.30;1.55;;;17.30;99.90;;;;;;5067314;28;20177;-69
2023/09/13 02:33:50;;;;;;;9.85;1.90;;;17.30;99.90;;;;;;5066752;28;20098;-69
2023/09/13 02:36:15;;;;;;;7.80;1.60;;;17.30;99.90;;;;;;5066404;28;20106;-69
2023/09/13 02:38:41;;;;;;;8.15;1.65;;;17.30;99.90;;;;;;5064894;28;20564;-69
2023/09/13 02:41:07;;;;;;;11.57;2.10;;;17.20;99.90;;;;;;5067260;28;20044;-68
2023/09/13 02:43:32;;;;;;;10.85;2.30;;;17.20;99.90;;;;;;5069653;28;20055;-69
2023/09/13 02:45:58;;;;;;;7.28;1.88;;;17.20;99.90;;;;;;5067263;28;20401;-68
2023/09/13 02:48:25;;;;;;;7.75;1.92;;;17.20;99.90;;;;;;5069265;28;20040;-69
2023/09/13 02:50:51;;;;;;;8.32;1.90;;;17.20;99.90;;;;;;5070649;28;20044;-68
2023/09/13 02:53:17;;;;;;;7.22;2.17;;;17.20;99.90;;;;;;5068461;28;20105;-69
2023/09/13 02:55:43;;;;;;;10.25;1.67;;;17.20;99.90;;;;;;5069271;28;20674;-68
2023/09/13 02:58:09;;;;;;;10.38;1.60;;;17.20;99.90;;;;;;5069199;28;20052;-68
2023/09/13 03:00:35;;;;;;;10.30;1.77;;;17.20;99.90;;;;;;5070534;28;20036;-68
2023/09/13 03:03:00;;;;;;;12.27;2.65;;;17.20;99.90;;;;;;5070386;28;20041;-68
2023/09/13 03:05:26;;;;;;;11.07;1.95;;;17.20;99.90;;;;;;5070436;28;20037;-68
2023/09/13 03:07:54;;;;;;;9.10;1.65;;;17.20;99.90;;;;;;5067054;28;20051;-68
2023/09/13 03:10:20;;;;;;;11.75;1.98;;;17.20;99.90;;;;;;5068375;28;20410;-68
2023/09/13 03:12:46;;;;;;;12.23;1.92;;;17.20;99.90;;;;;;5064706;28;20048;-68
2023/09/13 03:15:11;;;;;;;15.05;2.35;;;17.20;99.90;;;;;;5067710;28;20052;-67
2023/09/13 03:17:37;;;;;;;13.52;2.05;;;17.10;99.90;;;;;;5063258;28;20040;-68
2023/09/13 03:20:03;;;;;;;13.43;2.00;;;17.10;99.90;;;;;;5068068;28;20292;-68
2023/09/13 03:22:29;;;;;;;13.07;1.92;;;17.10;99.90;;;;;;5068560;28;20036;-68
2023/09/13 03:24:54;;;;;;;10.45;1.75;;;17.10;99.90;;;;;;5067446;28;20040;-68
2023/09/13 03:27:20;;;;;;;9.43;1.67;;;17.10;99.90;;;;;;5063457;28;20142;-68
2023/09/13 03:29:46;;;;;;;7.85;1.60;;;17.10;99.90;;;;;;5058380;28;20063;-68
2023/09/13 03:32:11;;;;;;;9.32;1.50;;;17.10;99.90;;;;;;5064844;28;20047;-68
2023/09/13 03:34:37;;;;;;;11.35;2.10;;;17.00;99.90;;;;;;5067894;28;20041;-68
2023/09/13 03:37:05;;;;;;;14.20;2.05;;;17.00;99.90;;;;;;5065882;28;20047;-68
2023/09/13 03:39:31;;;;;;;8.73;1.58;;;17.00;99.90;;;;;;5054722;28;20042;-68
2023/09/13 03:41:57;;;;;;;8.48;1.40;;;17.00;99.90;;;;;;5059852;28;20135;-68
2023/09/13 03:44:23;;;;;;;7.80;1.45;;;17.00;99.90;;;;;;5068587;28;20124;-68
2023/09/13 03:46:49;;;;;;;11.32;1.67;;;16.90;99.90;;;;;;5067046;28;20086;-68
2023/09/13 03:49:14;;;;;;;9.02;1.70;;;16.90;99.90;;;;;;5048656;28;20127;-67
2023/09/13 03:51:40;;;;;;;8.40;1.50;;;16.90;99.90;;;;;;5045883;28;20039;-68
2023/09/13 03:54:06;;;;;;;8.43;1.38;;;16.90;99.90;;;;;;5064683;28;20036;-72
2023/09/13 03:56:34;;;;;;;8.98;2.10;;;16.80;99.90;;;;;;5068476;28;20484;-72
2023/09/13 03:59:00;;;;;;;9.93;1.70;;;16.70;99.90;;;;;;5058692;28;20040;-72
2023/09/13 04:01:26;;;;;;;6.68;1.50;;;16.70;99.90;;;;;;5058035;28;20075;-71
2023/09/13 04:03:52;;;;;;;9.10;1.65;;;16.70;99.90;;;;;;5054852;28;20049;-71
2023/09/13 04:06:18;;;;;;;8.90;1.90;;;16.70;99.90;;;;;;5067012;28;20052;-71
2023/09/13 04:08:45;;;;;;;10.32;2.60;;;16.60;99.90;;;;;;5067854;28;20062;-71
2023/09/13 04:11:11;;;;;;;6.80;1.60;;;16.60;99.90;;;;;;5069226;28;20595;-72
2023/09/13 04:13:36;;;;;;;9.90;1.83;;;16.60;99.90;;;;;;5067775;28;20131;-71
2023/09/13 04:16:04;;;;;;;14.23;2.28;;;16.60;99.90;;;;;;5066977;28;20049;-72
2023/09/13 04:18:29;;;;;;;8.85;1.92;;;16.60;99.90;;;;;;5065733;28;20048;-72
2023/09/13 04:20:55;;;;;;;10.38;1.90;;;16.50;99.90;;;;;;5067686;28;20050;-72
2023/09/13 04:23:21;;;;;;;8.40;2.22;;;16.50;99.90;;;;;;5067000;28;20128;-72
2023/09/13 04:25:46;;;;;;;11.80;2.33;;;16.50;99.90;;;;;;5067867;28;20394;-72
2023/09/13 04:28:12;;;;;;;8.40;1.92;;;16.40;99.90;;;;;;5065717;28;20072;-72
2023/09/13 04:30:38;;;;;;;8.70;1.92;;;16.40;99.90;;;;;;5067921;28;20048;-71
2023/09/13 04:33:06;;;;;;;7.33;1.90;;;16.30;99.90;;;;;;5025450;28;1160390;-72
2023/09/13 04:35:32;;;;;;;13.48;2.63;;;16.30;99.90;;;;;;5067224;28;20295;-71
2023/09/13 04:37:59;;;;;;;8.63;2.25;;;16.20;99.90;;;;;;5058129;28;20049;-71
2023/09/13 04:40:24;;;;;;;11.40;1.95;;;16.20;99.90;;;;;;5065494;28;20049;-71
2023/09/13 04:42:55;;;;;;;12.65;2.67;;;16.10;99.90;;;;;;5069226;28;20059;-71
2023/09/13 04:45:21;;;;;;;11.30;2.25;;;16.00;99.90;;;;;;5068438;28;20040;-71
2023/09/13 04:47:47;;;;;;;10.55;2.05;;;16.00;99.90;;;;;;5056124;28;20041;-71
2023/09/13 04:50:13;;;;;;;10.75;2.20;;;16.00;99.90;;;;;;5048147;28;20517;-71
2023/09/13 04:52:39;;;;;;;34.78;3.80;;;15.90;99.90;;;;;;5056200;28;20129;-71
2023/09/13 04:55:05;;;;;;;10.80;2.20;;;15.90;99.90;;;;;;5062252;28;20558;-71
2023/09/13 04:57:31;;;;;;;9.85;2.13;;;15.90;99.90;;;;;;5048864;28;20044;-71
2023/09/13 04:59:57;;;;;;;10.05;2.03;;;15.90;99.90;;;;;;5052272;28;20706;-71
2023/09/13 05:02:22;;;;;;;12.95;2.88;;;15.80;99.90;;;;;;5059020;28;20070;-70
2023/09/13 05:04:48;;;;;;;9.52;2.50;;;15.80;99.90;;;;;;5066375;28;20505;-70
2023/09/13 05:07:14;;;;;;;8.50;2.20;;;15.70;99.90;;;;;;5058309;28;20052;-70
2023/09/13 05:09:40;;;;;;;14.50;2.63;;;15.70;99.90;;;;;;5049973;28;20045;-71
2023/09/13 05:12:06;;;;;;;13.27;2.75;;;15.60;99.90;;;;;;5062740;28;20052;-71
2023/09/13 05:14:33;;;;;;;14.13;2.72;;;15.60;99.90;;;;;;5048195;28;20056;-70
2023/09/13 05:16:59;;;;;;;9.02;2.38;;;15.60;99.90;;;;;;5054274;28;20051;-70
2023/09/13 05:19:25;;;;;;;10.98;2.40;;;15.50;99.90;;;;;;5056783;28;20152;-71
2023/09/13 05:21:51;;;;;;;8.63;2.35;;;15.50;99.90;;;;;;5057409;28;20128;-71
2023/09/13 05:24:17;;;;;;;9.40;2.30;;;15.50;99.90;;;;;;5061426;28;20413;-71
2023/09/13 05:26:43;;;;;;;9.88;2.10;;;15.50;99.90;;;;;;5051002;28;20044;-72
2023/09/13 05:29:09;;;;;;;7.38;1.95;;;15.40;99.90;;;;;;5051611;28;20033;-70
2023/09/13 05:31:35;;;;;;;10.25;1.92;;;15.40;99.90;;;;;;5052316;28;20485;-70
2023/09/13 05:34:01;;;;;;;8.68;2.20;;;15.40;99.90;;;;;;5049558;28;20048;-71
2023/09/13 05:36:27;;;;;;;10.93;2.08;;;15.30;99.90;;;;;;5059806;28;20463;-71
2023/09/13 05:38:53;;;;;;;9.65;2.50;;;15.30;99.90;;;;;;5052393;28;20036;-72
2023/09/13 05:41:18;;;;;;;11.57;2.20;;;15.30;99.90;;;;;;5055423;28;20141;-71
2023/09/13 05:43:44;;;;;;;10.10;1.80;;;15.30;99.90;;;;;;5049247;28;20072;-70
2023/09/13 05:46:10;;;;;;;8.38;2.20;;;15.30;99.90;;;;;;5049979;28;20044;-71
2023/09/13 05:48:36;;;;;;;11.30;2.58;;;15.30;99.90;;;;;;5044810;28;20132;-71
2023/09/13 05:51:03;;;;;;;11.52;2.58;;;15.30;99.90;;;;;;5053857;28;20125;-71
2023/09/13 05:53:30;;;;;;;17.27;3.10;;;15.30;99.90;;;;;;5051919;28;20044;-71
2023/09/13 05:55:56;;;;;;;14.68;2.30;;;15.30;99.90;;;;;;5057190;28;20047;-71
2023/09/13 05:58:22;;;;;;;11.57;3.13;;;15.30;99.90;;;;;;5054022;28;20123;-71
2023/09/13 06:00:49;;;;;;;13.35;2.50;;;15.20;99.90;;;;;;5045282;28;20135;-72
2023/09/13 06:03:19;;;;;;;17.58;3.72;;;15.20;99.90;;;;;;5053574;28;20643;-71
2023/09/13 06:05:50;;;;;;;17.52;3.00;;;15.20;99.90;;;;;;5052946;28;20036;-71
2023/09/13 06:08:17;;;;;;;;;;;15.20;99.90;;;;;;5057702;28;20033;-70
2023/09/13 06:10:43;;;;;;;14.90;3.35;;;15.20;99.90;;;;;;5059479;28;21006;-71
2023/09/13 06:13:09;;;;;;;18.92;3.33;;;15.10;99.90;;;;;;5050293;28;20041;-70
2023/09/13 06:15:34;;;;;;;21.83;4.53;;;15.10;99.90;;;;;;5037114;28;20163;-70
2023/09/13 06:18:00;;;;;;;17.90;3.17;;;15.10;99.90;;;;;;5035264;28;20175;-70
2023/09/13 06:20:26;;;;;;;21.25;3.50;;;15.00;99.90;;;;;;5040609;28;20044;-69
2023/09/13 06:22:54;;;;;;;13.45;2.95;;;15.00;99.90;;;;;;5041771;28;20098;-71
2023/09/13 06:25:20;;;;;;;19.80;3.92;;;15.00;99.90;;;;;;5046286;28;20041;-70
2023/09/13 06:27:46;;;;;;;14.50;2.92;;;15.00;99.90;;;;;;5044781;28;20144;-70
2023/09/13 06:30:14;;;;;;;21.10;3.67;;;14.90;99.90;;;;;;5058761;28;20068;-70
2023/09/13 06:32:40;;;;;;;16.90;3.80;;;14.90;99.90;;;;;;5047590;28;20110;-69
2023/09/13 06:35:11;;;;;;;13.93;3.30;;;14.90;99.90;;;;;;5043449;28;20997;-70
2023/09/13 06:37:36;;;;;;;17.30;4.00;;;14.90;99.90;;;;;;5042142;28;20405;-71
2023/09/13 06:40:03;;;;;;;11.75;3.00;;;14.90;99.90;;;;;;5043162;28;20032;-70
2023/09/13 06:42:29;;;;;;;21.08;4.18;;;14.90;99.90;;;;;;5040098;28;20145;-71
2023/09/13 06:44:56;;;;;;;20.90;3.63;;;14.90;99.90;;;;;;5041748;28;20144;-71
2023/09/13 06:47:22;;;;;;;22.27;3.35;;;14.90;99.90;;;;;;5044646;28;20043;-72
2023/09/13 06:49:47;;;;;;;11.23;3.40;;;14.90;99.90;;;;;;5038425;28;20040;-70
2023/09/13 06:52:13;;;;;;;13.80;2.83;;;14.90;99.90;;;;;;5038585;28;20494;-71
2023/09/13 06:54:39;;;;;;;8.88;2.67;;;14.90;99.90;;;;;;5050256;28;20083;-71
2023/09/13 06:57:08;;;;;;;13.68;2.88;;;14.90;99.90;;;;;;5042786;28;20131;-72
2023/09/13 06:59:34;;;;;;;16.48;3.53;;;14.90;99.90;;;;;;5040401;28;20087;-70
2023/09/13 07:01:59;;;;;;;16.17;3.60;;;14.90;99.90;;;;;;5049972;28;20119;-71
2023/09/13 07:04:25;;;;;;;10.02;2.22;;;14.90;99.90;;;;;;5042659;28;20564;-71
2023/09/13 07:06:51;;;;;;;11.75;2.50;;;14.90;99.90;;;;;;5036960;28;21375;-71
2023/09/13 07:09:17;;;;;;;12.07;2.55;;;15.00;99.90;;;;;;5043182;28;20041;-71
2023/09/13 07:11:43;;;;;;;11.10;2.28;;;15.00;99.90;;;;;;5042770;28;20037;-71
2023/09/13 07:14:09;;;;;;;17.45;2.83;;;15.00;99.90;;;;;;5044608;28;20378;-71
2023/09/13 07:16:34;;;;;;;14.23;2.38;;;15.00;99.90;;;;;;5042148;28;20114;-72
2023/09/13 07:19:02;;;;;;;14.50;3.05;;;15.00;99.90;;;;;;5040461;28;20238;-71
2023/09/13 07:21:29;;;;;;;11.57;2.40;;;15.00;99.90;;;;;;5040013;28;20136;-71
2023/09/13 07:23:55;;;;;;;14.45;2.55;;;15.00;99.90;;;;;;5043899;28;20051;-71
2023/09/13 07:26:21;;;;;;;8.90;2.13;;;15.00;99.90;;;;;;5048335;28;20494;-71
2023/09/13 07:28:46;;;;;;;10.70;2.17;;;15.00;99.90;;;;;;5046363;28;20590;-71
2023/09/13 07:31:16;;;;;;;14.48;2.35;;;15.00;99.90;;;;;;5056497;28;20045;-71
2023/09/13 07:33:42;;;;;;;12.07;3.15;;;15.00;99.90;;;;;;5048191;28;20058;-70
2023/09/13 07:36:08;;;;;;;14.48;2.63;;;15.00;99.90;;;;;;5046822;28;20044;-71
2023/09/13 07:38:34;;;;;;;12.27;2.25;;;15.00;99.90;;;;;;5056805;28;20055;-71
2023/09/13 07:41:00;;;;;;;12.60;2.90;;;15.00;99.90;;;;;;5058784;28;20115;-71
2023/09/13 07:43:27;;;;;;;8.68;2.10;;;15.00;99.90;;;;;;5046382;28;20449;-71
2023/09/13 07:45:53;;;;;;;11.13;1.88;;;15.00;99.90;;;;;;5082144;28;20077;-70
2023/09/13 07:48:19;;;;;;;9.73;2.38;;;14.90;99.90;;;;;;5057137;28;20072;-71
2023/09/13 07:50:45;;;;;;;11.93;2.08;;;14.90;99.90;;;;;;5057928;28;20041;-71
2023/09/13 07:53:12;;;;;;;9.52;2.05;;;14.90;99.90;;;;;;5046801;28;20111;-70
2023/09/13 07:55:38;;;;;;;11.52;2.53;;;14.90;99.90;;;;;;5064063;28;20041;-71
2023/09/13 07:58:06;;;;;;;11.90;2.08;;;14.90;99.90;;;;;;5067531;28;20455;-71
2023/09/13 08:00:32;;;;;;;10.25;2.17;;;14.90;99.90;;;;;;5057037;28;20045;-71
2023/09/13 08:02:59;;;;;;;12.13;2.42;;;14.90;99.90;;;;;;5034729;28;20045;-71
2023/09/13 08:05:25;;;;;;;10.80;2.08;;;15.00;99.90;;;;;;5053732;28;20040;-71
2023/09/13 08:07:52;;;;;;;12.70;2.45;;;15.00;99.90;;;;;;5047254;28;20052;-71
2023/09/13 08:10:18;;;;;;;10.65;2.03;;;15.00;99.90;;;;;;5058853;28;20101;-71
2023/09/13 08:12:44;;;;;;;8.85;2.40;;;15.00;99.90;;;;;;5060243;28;20040;-71
2023/09/13 08:15:10;;;;;;;12.70;2.20;;;15.10;99.90;;;;;;5038286;28;20041;-71
2023/09/13 08:17:36;;;;;;;11.43;2.92;;;15.10;99.90;;;;;;5060739;28;20044;-71
2023/09/13 08:20:07;;;;;;;10.90;2.58;;;15.10;99.90;;;;;;5060388;28;20040;-71
2023/09/13 08:22:32;;;;;;;12.43;2.88;;;15.10;99.90;;;;;;5056858;28;20116;-71
2023/09/13 08:24:58;;;;;;;9.32;2.78;;;15.20;99.90;;;;;;5052338;28;20113;-71
2023/09/13 08:27:24;;;;;;;17.45;2.17;;;15.20;99.90;;;;;;5056894;28;20693;-71
2023/09/13 08:29:49;;;;;;;16.73;2.92;;;15.30;99.90;;;;;;5036421;28;20076;-71
2023/09/13 08:32:15;;;;;;;10.82;2.60;;;15.30;99.90;;;;;;5056092;28;20036;-72
2023/09/13 08:34:41;;;;;;;14.98;2.72;;;15.40;99.90;;;;;;5057757;28;20044;-71
2023/09/13 08:37:06;;;;;;;14.45;2.85;;;15.40;99.90;;;;;;5052523;28;20275;-71
2023/09/13 08:39:32;;;;;;;15.65;2.78;;;15.40;99.90;;;;;;5056495;28;20058;-71
2023/09/13 08:41:58;;;;;;;12.90;2.67;;;15.50;99.90;;;;;;5057190;28;20498;-71
2023/09/13 08:44:25;;;;;;;11.48;2.25;;;15.40;99.90;;;;;;5051367;28;20082;-71
2023/09/13 08:46:56;;;;;;;9.77;2.10;;;15.50;99.90;;;;;;5057269;28;20049;-71
2023/09/13 08:49:26;;;;;;;15.55;2.25;;;15.50;99.90;;;;;;5038569;28;20274;-71
2023/09/13 08:51:53;;;;;;;9.18;2.22;;;15.60;99.90;;;;;;5043764;28;20646;-71
2023/09/13 08:54:19;;;;;;;10.23;2.15;;;15.60;99.90;;;;;;5042683;28;20056;-71
2023/09/13 08:56:45;;;;;;;12.25;2.10;;;15.70;99.90;;;;;;5036639;28;20711;-72
2023/09/13 08:59:16;;;;;;;6.65;2.03;;;15.70;99.90;;;;;;5043435;28;20052;-71
2023/09/13 09:01:53;;;;;;;12.68;2.50;;;15.70;99.90;;;;;;5044542;28;20312;-71
2023/09/13 09:04:20;;;;;;;12.75;2.42;;;15.70;99.90;;;;;;5042870;28;20076;-71
2023/09/13 09:06:47;;;;;;;14.38;3.50;;;15.70;99.90;;;;;;5039832;28;20125;-71
2023/09/13 09:09:17;;;;;;;14.98;3.22;;;15.70;99.90;;;;;;5041972;28;20040;-70
2023/09/13 09:11:45;;;;;;;15.88;2.92;;;15.70;99.90;;;;;;5043314;28;20057;-70
2023/09/13 09:14:19;;;;;;;16.20;3.53;;;15.70;99.90;;;;;;5044722;28;20059;-70
2023/09/13 09:16:48;;;;;;;17.10;3.30;;;15.60;99.90;;;;;;5040083;28;20099;-70
2023/09/13 09:19:14;;;;;;;14.27;3.40;;;15.60;99.90;;;;;;5041578;28;20106;-70
2023/09/13 09:21:40;;;;;;;23.02;3.35;;;15.60;99.90;;;;;;5044203;28;20172;-69
2023/09/13 09:24:06;;;;;;;13.70;3.00;;;15.50;99.90;;;;;;5041979;28;20049;-70
2023/09/13 09:26:32;;;;;;;14.73;2.90;;;15.50;99.90;;;;;;5035909;28;20048;-70
2023/09/13 09:29:11;;;;;;;12.02;3.38;;;15.50;99.90;;;;;;5041652;28;20063;-71
2023/09/13 09:31:39;;;;;;;14.57;2.88;;;15.50;99.90;;;;;;5042554;28;20048;-71
2023/09/13 09:34:05;;;;;;;15.98;3.65;;;15.50;99.90;;;;;;5040656;28;20117;-70
2023/09/13 09:36:38;;;;;;;11.85;2.45;;;15.50;99.90;;;;;;5040063;28;20052;-70
2023/09/13 09:39:04;;;;;;;11.45;2.83;;;15.40;99.90;;;;;;5040710;28;20056;-71
2023/09/13 09:41:37;;;;;;;10.32;3.30;;;15.40;99.90;;;;;;5041354;28;20515;-71
2023/09/13 09:44:04;;;;;;;8.70;2.45;;;15.40;99.90;;;;;;5048593;28;20062;-72
2023/09/13 09:46:31;;;;;;;11.98;3.15;;;15.40;99.90;;;;;;5055805;28;20040;-72
2023/09/13 09:48:58;;;;;;;10.57;2.65;;;15.50;99.90;;;;;;5055646;28;20627;-72
2023/09/13 09:51:24;;;;;;;12.95;2.72;;;15.50;99.90;;;;;;5054967;28;20072;-71
2023/09/13 09:53:50;;;;;;;7.68;2.50;;;15.50;99.90;;;;;;5057951;28;20032;-72
2023/09/13 09:56:16;;;;;;;9.05;2.40;;;15.50;99.90;;;;;;5078101;28;20080;-71
2023/09/13 09:58:43;;;;;;;7.55;2.72;;;15.50;99.90;;;;;;5043537;28;20122;-72
2023/09/13 10:01:11;;;;;;;8.23;2.30;;;15.50;99.90;;;;;;5074394;28;20072;-71
2023/09/13 10:03:38;;;;;;;9.63;2.70;;;15.60;99.90;;;;;;5058166;28;20041;-73
2023/09/13 10:06:15;;;;;;;11.57;2.78;;;15.60;99.90;;;;;;5048301;28;20054;-73
2023/09/13 10:08:47;;;;;;;9.98;2.85;;;15.70;99.90;;;;;;5038098;28;20041;-73
2023/09/13 10:11:15;;;;;;;8.43;2.40;;;15.70;99.90;;;;;;5052618;28;20075;-73
2023/09/13 10:13:45;;;;;;;10.32;2.60;;;15.80;99.90;;;;;;5044959;28;20067;-73
2023/09/13 10:16:11;;;;;;;8.82;2.60;;;15.80;99.90;;;;;;5047656;28;20056;-73
2023/09/13 10:18:48;;;;;;;5.93;2.30;;;15.90;99.90;;;;;;5058182;28;20175;-73
2023/09/13 10:21:25;;;;;;;11.98;2.78;;;16.00;99.90;;;;;;5051627;28;20136;-72
2023/09/13 10:24:02;;;;;;;7.68;2.47;;;16.10;99.90;;;;;;5049024;28;20051;-73
2023/09/13 10:26:31;;;;;;;6.28;2.40;;;16.10;99.90;;;;;;5050453;28;20048;-73
2023/09/13 10:29:15;;;;;;;9.02;3.05;;;16.20;99.90;;;;;;5054138;28;20080;-73
2023/09/13 10:31:44;;;;;;;6.93;2.60;;;16.30;99.90;;;;;;5047727;28;20044;-70
2023/09/13 10:34:18;;;;;;;15.15;2.80;;;16.30;99.90;;;;;;5049133;28;20053;-71
2023/09/13 10:36:50;;;;;;;8.82;2.55;;;16.40;99.90;;;;;;5048521;28;20045;-71
2023/09/13 10:39:29;;;;;;;7.78;2.40;;;16.50;99.90;;;;;;5042974;28;20198;-72
2023/09/13 10:42:02;;;;;;;9.20;2.85;;;16.60;99.90;;;;;;5053370;28;20043;-71
2023/09/13 10:44:28;;;;;;;9.52;3.13;;;16.60;99.90;;;;;;5050861;28;20781;-72
2023/09/13 10:46:55;;;;;;;10.75;2.92;;;16.70;99.90;;;;;;5044472;28;20037;-71
2023/09/13 10:49:23;;;;;;;7.05;2.80;;;16.80;99.90;;;;;;5055449;28;20076;-71
2023/09/13 10:51:50;;;;;;;7.80;2.90;;;16.80;99.90;;;;;;5055437;28;20704;-72
2023/09/13 10:54:18;;;;;;;8.43;2.42;;;16.90;99.90;;;;;;5048646;28;20052;-71
2023/09/13 10:56:44;;;;;;;9.00;2.30;;;16.90;99.90;;;;;;5055637;28;20045;-71
2023/09/13 10:59:13;;;;;;;10.30;2.75;;;17.00;99.90;;;;;;5089863;28;20043;-71
2023/09/13 11:01:45;;;;;;;6.68;2.45;;;16.90;99.90;;;;;;5047645;28;20705;-71
2023/09/13 11:04:23;;;;;;;11.20;2.67;;;16.90;99.90;;;;;;5052176;28;20103;-71
2023/09/13 11:06:51;;;;;;;7.55;2.28;;;16.90;99.90;;;;;;5058259;28;20677;-71
2023/09/13 11:09:30;;;;;;;8.82;2.30;;;16.90;99.90;;;;;;5060938;28;20110;-72
2023/09/13 11:11:57;;;;;;;9.98;2.38;;;17.00;99.90;;;;;;5060762;28;20443;-71
2023/09/13 11:14:27;;;;;;;6.13;1.90;;;17.00;99.90;;;;;;5062613;28;20032;-71
2023/09/13 11:16:53;;;;;;;5.85;2.30;;;17.00;99.90;;;;;;5061015;28;20366;-71
2023/09/13 11:19:26;;;;;;;6.18;2.13;;;17.10;99.90;;;;;;5065424;28;20037;-71
2023/09/13 11:21:57;;;;;;;7.30;2.22;;;17.10;99.90;;;;;;5062104;28;20077;-70
2023/09/13 11:24:41;;;;;;;9.00;2.60;;;17.10;99.90;;;;;;5059270;28;20051;-71
2023/09/13 11:27:14;;;;;;;6.97;2.17;;;17.10;99.90;;;;;;5061590;28;20044;-71
2023/09/13 11:29:46;;;;;;;6.90;1.80;;;17.10;99.90;;;;;;5064857;28;20127;-71
2023/09/13 11:32:25;;;;;;;6.38;1.92;;;17.10;99.90;;;;;;5059662;28;20032;-72
2023/09/13 11:34:58;;;;;;;9.43;2.08;;;17.20;99.90;;;;;;5060353;28;20047;-72
2023/09/13 11:37:26;;;;;;;6.75;1.58;;;17.30;99.90;;;;;;5062495;28;20144;-72
2023/09/13 11:40:13;;;;;;;9.48;1.75;;;17.40;99.90;;;;;;5060781;28;20044;-72
2023/09/13 11:42:40;;;;;;;6.57;1.52;;;17.50;99.90;;;;;;5056047;28;20071;-72
2023/09/13 11:45:08;;;;;;;7.07;1.67;;;17.50;99.90;;;;;;5054219;28;20132;-71
2023/09/13 11:47:36;;;;;;;7.15;1.50;;;17.50;99.90;;;;;;5060008;28;20128;-71
2023/09/13 11:50:03;;;;;;;9.60;2.17;;;17.50;99.90;;;;;;5063862;28;20059;-71
2023/09/13 11:53:06;;;;;;;5.72;1.65;;;17.40;99.90;;;;;;5061945;28;20521;-71
2023/09/13 11:55:32;;;;;;;7.00;1.80;;;17.40;99.90;;;;;;5063321;28;20045;-70
2023/09/13 11:57:58;;;;;;;9.95;1.88;;;17.30;99.90;;;;;;5061694;28;20055;-71
2023/09/13 12:00:25;;;;;;;8.90;1.70;;;17.30;99.90;;;;;;5061959;28;20075;-70
2023/09/13 12:02:53;;;;;;;9.85;1.70;;;17.30;99.90;;;;;;5063999;28;20048;-71
2023/09/13 12:05:20;;;;;;;7.88;1.58;;;17.30;99.90;;;;;;5060318;28;20390;-72
2023/09/13 12:07:46;;;;;;;9.15;2.17;;;17.20;99.90;;;;;;5059427;28;20057;-71
2023/09/13 12:10:12;;;;;;;8.35;1.52;;;17.20;99.90;;;;;;5063452;28;20047;-71
2023/09/13 12:12:42;;;;;;;9.30;1.83;;;17.20;99.90;;;;;;5060940;28;20055;-71
2023/09/13 12:15:14;;;;;;;7.27;1.63;;;17.20;99.90;;;;;;5060820;28;20048;-71
2023/09/13 12:17:40;;;;;;;11.13;1.75;;;17.30;99.90;;;;;;5058796;28;20436;-72
2023/09/13 12:20:10;;;;;;;8.27;1.67;;;17.40;99.90;;;;;;5063954;28;20048;-71
2023/09/13 12:22:42;;;;;;;6.93;1.45;;;17.50;99.90;;;;;;5057602;28;20041;-71
2023/09/13 12:25:12;;;;;;;11.68;2.05;;;17.50;99.90;;;;;;5060958;28;20421;-70
2023/09/13 12:27:38;;;;;;;11.43;1.95;;;17.50;99.90;;;;;;5062395;28;20047;-71
2023/09/13 12:30:08;;;;;;;11.25;2.15;;;17.50;99.90;;;;;;5062324;28;20047;-70
2023/09/13 12:32:34;;;;;;;12.25;2.08;;;17.40;99.90;;;;;;5060699;28;20044;-71
2023/09/13 12:35:01;;;;;;;14.75;2.00;;;17.40;99.90;;;;;;5062822;28;20703;-71
2023/09/13 12:37:26;;;;;;;8.65;1.70;;;17.30;99.90;;;;;;5060005;28;20040;-70
2023/09/13 12:39:52;;;;;;;8.65;1.65;;;17.30;99.90;;;;;;5062748;28;20098;-72
2023/09/13 12:42:18;;;;;;;12.65;2.60;;;17.20;99.90;;;;;;5060394;28;20076;-72